createdAt,value
2019-02-26T00:03:04.749Z,1029.63
2019-02-26T00:08:02.457Z,1029.65
2019-02-26T00:12:57.490Z,1029.77
2019-02-26T00:17:53.315Z,1029.61
2019-02-26T00:22:48.760Z,1029.58
2019-02-26T00:27:44.435Z,1029.60
2019-02-26T00:32:40.546Z,1029.61
2019-02-26T00:37:37.051Z,1029.63
2019-02-26T00:42:34.251Z,1029.52
2019-02-26T00:47:33.882Z,1029.26
2019-02-26T00:52:30.464Z,1029.19
2019-02-26T00:57:27.320Z,1029.28
2019-02-26T01:02:25.121Z,1029.29
2019-02-26T01:07:21.363Z,1029.22
2019-02-26T01:12:18.344Z,1029.18
2019-02-26T01:17:14.842Z,1029.21
2019-02-26T01:22:11.268Z,1029.21
2019-02-26T01:27:08.465Z,1029.31
2019-02-26T01:32:03.784Z,1029.26
2019-02-26T01:37:00.909Z,1029.29
2019-02-26T01:41:58.824Z,1029.27
2019-02-26T01:46:55.623Z,1029.36
2019-02-26T01:51:53.937Z,1029.20
2019-02-26T01:56:50.891Z,1029.05
2019-02-26T02:01:49.634Z,1028.98
2019-02-26T02:06:45.942Z,1028.80
2019-02-26T02:11:41.811Z,1028.75
2019-02-26T02:16:37.314Z,1028.62
2019-02-26T02:21:33.812Z,1028.67
2019-02-26T02:26:30.611Z,1028.67
2019-02-26T02:31:31.120Z,1028.61
2019-02-26T02:36:27.403Z,1028.55
2019-02-26T02:41:22.603Z,1028.58
2019-02-26T02:46:18.134Z,1028.69
2019-02-26T02:51:13.779Z,1028.52
2019-02-26T02:56:10.550Z,1028.56
2019-02-26T03:01:07.149Z,1028.47
2019-02-26T03:06:06.495Z,1028.50
2019-02-26T03:11:01.429Z,1028.55
2019-02-26T03:15:59.264Z,1028.49
2019-02-26T03:20:56.691Z,1028.63
2019-02-26T03:25:55.187Z,1028.62
2019-02-26T03:30:50.310Z,1028.63
2019-02-26T03:35:45.876Z,1028.70
2019-02-26T03:40:41.959Z,1028.73
2019-02-26T03:45:37.596Z,1028.78
2019-02-26T03:50:33.328Z,1028.72
2019-02-26T03:55:31.707Z,1028.75
2019-02-26T04:00:27.884Z,1028.69
2019-02-26T04:05:24.498Z,1028.68
2019-02-26T04:10:19.923Z,1028.73
2019-02-26T04:15:15.457Z,1028.80
2019-02-26T04:20:12.617Z,1028.74
2019-02-26T04:25:09.279Z,1028.69
2019-02-26T04:30:06.287Z,1028.70
2019-02-26T04:35:04.155Z,1028.68
2019-02-26T04:40:01.465Z,1028.57
2019-02-26T04:45:01.226Z,1028.65
2019-02-26T04:50:00.671Z,1028.69
2019-02-26T04:54:57.840Z,1028.84
2019-02-26T04:59:55.469Z,1028.69
2019-02-26T05:04:50.955Z,1028.73
2019-02-26T05:09:47.536Z,1028.76
2019-02-26T05:14:44.797Z,1028.76
2019-02-26T05:19:43.377Z,1028.71
2019-02-26T05:24:42.423Z,1028.66
2019-02-26T05:29:40.974Z,1028.82
2019-02-26T05:34:39.848Z,1028.81
2019-02-26T05:39:36.446Z,1028.76
2019-02-26T05:44:31.920Z,1028.85
2019-02-26T05:49:31.558Z,1028.76
2019-02-26T05:54:29.218Z,1028.71
2019-02-26T05:59:23.996Z,1028.72
2019-02-26T06:04:20.681Z,1028.72
2019-02-26T06:09:16.371Z,1028.67
2019-02-26T06:14:12.646Z,1028.67
2019-02-26T06:19:10.914Z,1028.62
2019-02-26T06:24:06.201Z,1028.60
2019-02-26T06:29:03.036Z,1028.64
2019-02-26T06:34:01.660Z,1028.58
2019-02-26T06:38:58.869Z,1028.60
2019-02-26T06:43:55.626Z,1028.70
2019-02-26T06:48:52.257Z,1028.73
2019-02-26T06:53:49.795Z,1028.64
2019-02-26T06:58:47.430Z,1028.74
2019-02-26T07:03:42.637Z,1028.80
2019-02-26T07:08:38.612Z,1028.79
2019-02-26T07:13:36.182Z,1028.87
2019-02-26T07:18:31.584Z,1028.90
2019-02-26T07:23:29.310Z,1028.97
2019-02-26T07:28:26.847Z,1028.96
2019-02-26T07:33:22.241Z,1028.92
2019-02-26T07:38:18.941Z,1028.99
2019-02-26T07:43:17.914Z,1028.98
2019-02-26T07:48:18.598Z,1028.95
2019-02-26T09:57:52.091Z,1029.18
2019-02-26T10:02:47.166Z,1029.23
2019-02-26T10:07:44.527Z,1029.33
2019-02-26T10:12:40.652Z,1029.26
2019-02-26T10:17:39.986Z,1029.28
2019-02-26T10:22:38.010Z,1029.27
2019-02-26T10:27:36.131Z,1029.28
2019-02-26T10:32:33.716Z,1029.22
2019-02-26T10:37:31.314Z,1029.25
2019-02-26T10:42:27.208Z,1029.10
2019-02-26T10:47:25.082Z,1029.02
2019-02-26T10:52:23.873Z,1028.98
2019-02-26T10:57:20.383Z,1029.03
2019-02-26T11:02:17.793Z,1029.02
2019-02-26T11:07:16.360Z,1028.97
2019-02-26T11:12:12.895Z,1028.96
2019-02-26T11:17:09.915Z,1028.96
2019-02-26T11:22:06.922Z,1028.89
2019-02-26T11:27:04.115Z,1028.92
2019-02-26T11:32:01.657Z,1028.91
2019-02-26T11:37:00.768Z,1028.82
2019-02-26T11:42:00.770Z,1028.77
2019-02-26T11:46:56.608Z,1028.80
2019-02-26T11:51:52.100Z,1028.78
2019-02-26T11:56:49.869Z,1028.66
2019-02-26T12:01:47.027Z,1028.61
2019-02-26T12:06:43.595Z,1028.48
2019-02-26T12:11:40.336Z,1028.46
2019-02-26T12:16:35.670Z,1028.39
2019-02-26T12:21:32.301Z,1028.35
2019-02-26T12:26:30.212Z,1028.28
2019-02-26T12:31:28.428Z,1028.23
2019-02-26T12:36:26.632Z,1028.09
2019-02-26T12:41:25.500Z,1027.91
2019-02-26T12:46:23.890Z,1027.99
2019-02-26T12:51:20.035Z,1027.80
2019-02-26T12:56:17.082Z,1027.86
2019-02-26T13:01:12.884Z,1027.79
2019-02-26T13:06:11.901Z,1027.78
2019-02-26T13:11:11.764Z,1027.72
2019-02-26T13:16:07.996Z,1027.62
2019-02-26T13:21:08.943Z,1027.57
2019-02-26T13:26:04.635Z,1027.59
2019-02-26T13:31:04.960Z,1027.61
2019-02-26T13:36:04.845Z,1027.50
2019-02-26T13:41:24.357Z,1027.45
2019-02-26T13:46:00.940Z,1027.43
2019-02-26T13:50:56.668Z,1027.30
2019-02-26T13:55:52.561Z,1027.41
2019-02-26T14:00:48.695Z,1027.25
2019-02-26T14:05:45.290Z,1027.25
2019-02-26T14:10:41.511Z,1027.16
2019-02-26T14:15:37.490Z,1027.24
2019-02-26T14:20:34.400Z,1027.14
2019-02-26T14:25:29.564Z,1027.13
2019-02-26T14:30:25.496Z,1027.07
2019-02-26T14:35:23.020Z,1027.03
2019-02-26T14:40:19.081Z,1027.02
2019-02-26T14:45:14.251Z,1027.03
2019-02-26T14:50:10.033Z,1026.97
2019-02-26T14:55:06.413Z,1026.95
2019-02-26T15:00:02.267Z,1026.83
2019-02-26T15:04:58.136Z,1026.75
2019-02-26T15:09:53.768Z,1026.67
2019-02-26T15:14:49.665Z,1026.70
2019-02-26T15:19:49.625Z,1026.67
2019-02-26T15:24:45.601Z,1026.71
2019-02-26T15:29:41.120Z,1026.75
2019-02-26T15:34:37.127Z,1026.61
2019-02-26T15:39:33.801Z,1026.74
2019-02-26T15:44:30.349Z,1026.71
2019-02-26T15:49:25.737Z,1026.54
2019-02-26T15:54:21.666Z,1026.61
2019-02-26T15:59:17.513Z,1026.59
2019-02-26T16:04:13.245Z,1026.58
2019-02-26T16:09:09.961Z,1026.51
2019-02-26T16:14:05.475Z,1026.53
2019-02-26T16:19:01.330Z,1026.61
2019-02-26T16:23:58.626Z,1026.56
2019-02-26T16:28:56.471Z,1026.61
2019-02-26T16:33:51.937Z,1026.61
2019-02-26T16:38:50.736Z,1026.60
2019-02-26T16:43:47.289Z,1026.70
2019-02-26T16:48:42.607Z,1026.53
2019-02-26T16:53:39.191Z,1026.48
2019-02-26T16:58:35.616Z,1026.43
2019-02-26T17:03:34.051Z,1026.56
2019-02-26T17:08:30.746Z,1026.49
2019-02-26T17:13:25.997Z,1026.50
2019-02-26T17:18:21.664Z,1026.49
2019-02-26T17:23:18.800Z,1026.46
2019-02-26T17:28:15.805Z,1026.49
2019-02-26T17:33:14.562Z,1026.47
2019-02-26T17:38:12.852Z,1026.45
2019-02-26T17:43:10.500Z,1026.41
2019-02-26T17:48:06.484Z,1026.40
2019-02-26T17:53:02.172Z,1026.47
2019-02-26T17:57:57.948Z,1026.32
2019-02-26T18:02:53.555Z,1026.38
2019-02-26T18:07:50.775Z,1026.32
2019-02-26T18:12:46.628Z,1026.37
2019-02-26T18:17:42.174Z,1026.48
2019-02-26T18:22:38.481Z,1026.50
2019-02-26T18:27:34.417Z,1026.42
2019-02-26T18:32:30.050Z,1026.44
2019-02-26T18:37:26.149Z,1026.45
2019-02-26T18:42:22.098Z,1026.39
2019-02-26T18:47:18.062Z,1026.43
2019-02-26T18:52:13.898Z,1026.46
2019-02-26T18:57:11.504Z,1026.39
2019-02-26T19:02:07.452Z,1026.34
2019-02-26T19:07:05.218Z,1026.38
2019-02-26T19:12:00.383Z,1026.40
2019-02-26T19:16:56.086Z,1026.37
2019-02-26T19:21:54.105Z,1026.29
2019-02-26T19:26:49.976Z,1026.34
2019-02-26T19:31:46.809Z,1026.32
2019-02-26T19:36:45.456Z,1026.26
2019-02-26T19:41:40.848Z,1026.32
2019-02-26T19:46:36.387Z,1026.42
2019-02-26T19:51:32.481Z,1026.44
2019-02-26T19:56:29.075Z,1026.30
2019-02-26T20:01:25.855Z,1026.26
2019-02-26T20:06:23.562Z,1026.22
2019-02-26T20:11:22.832Z,1026.15
2019-02-26T20:16:18.251Z,1026.12
2019-02-26T20:21:13.666Z,1026.11
2019-02-26T20:26:10.635Z,1026.06
2019-02-26T20:31:05.863Z,1026.04
2019-02-26T20:36:01.495Z,1026.05
2019-02-26T20:40:57.360Z,1026.01
2019-02-26T20:45:53.978Z,1026.08
2019-02-26T20:50:53.459Z,1026.02
2019-02-26T20:55:52.571Z,1025.91
2019-02-26T21:00:48.308Z,1025.89
2019-02-26T21:05:44.741Z,1025.87
2019-02-26T21:10:40.530Z,1025.89
2019-02-26T21:15:36.208Z,1025.88
2019-02-26T21:20:31.811Z,1025.99
2019-02-26T21:25:28.682Z,1025.88
2019-02-26T21:30:26.466Z,1025.93
2019-02-26T21:35:21.466Z,1025.90
2019-02-26T21:40:17.227Z,1025.83
2019-02-26T21:45:16.192Z,1025.98
2019-02-26T21:50:10.898Z,1025.86
2019-02-26T21:55:07.594Z,1025.80
2019-02-26T22:00:05.495Z,1025.78
2019-02-26T22:05:05.089Z,1025.77
2019-02-26T22:10:00.002Z,1025.74
2019-02-26T22:14:55.931Z,1025.69
2019-02-26T22:19:52.428Z,1025.68
2019-02-26T22:24:47.885Z,1025.60
2019-02-26T22:29:47.919Z,1025.52
2019-02-26T22:34:42.932Z,1025.64
2019-02-26T22:39:38.481Z,1025.66
2019-02-26T22:44:34.270Z,1025.60
2019-02-26T22:49:31.382Z,1025.64
2019-02-26T22:54:26.875Z,1025.60
2019-02-26T22:59:22.516Z,1025.50
2019-02-26T23:04:19.673Z,1025.44
2019-02-26T23:09:17.645Z,1025.54
2019-02-26T23:14:13.745Z,1025.56
2019-02-26T23:19:09.245Z,1025.49
2019-02-26T23:24:05.005Z,1025.57
2019-02-26T23:29:01.096Z,1025.45
2019-02-26T23:33:56.624Z,1025.44
2019-02-26T23:38:51.711Z,1025.38
2019-02-26T23:43:48.195Z,1025.40
2019-02-26T23:48:43.667Z,1025.41
2019-02-26T23:53:40.448Z,1025.31
2019-02-26T23:58:36.792Z,1025.34
